Time;durP1;ratioP1;P1;durP2;ratioP2;P2;SDS_P1;SDS_P2;PMS_P1;PMS_P2;Temp;Humidity;BMP_temperature;BMP_pressure;BME280_temperature;BME280_humidity;BME280_pressure;Samples;Min_cycle;Max_cycle;Signal;HPM_P1;HPM_P2
2023/06/25 00:00:32;;;;;;;4.53;4.13;;;;;;;;;;5042483;28;20185;-79
2023/06/25 00:02:58;;;;;;;4.80;4.40;;;;;;;;;;5038931;28;20218;-79
2023/06/25 00:05:24;;;;;;;5.30;4.80;;;;;;;;;;5037845;28;20265;-79
2023/06/25 00:07:50;;;;;;;4.70;4.30;;;;;;;;;;5038817;28;20178;-79
2023/06/25 00:10:18;;;;;;;5.07;4.40;;;;;;;;;;5032355;28;20646;-79
2023/06/25 00:12:44;;;;;;;4.97;4.50;;;;;;;;;;5038518;28;20204;-79
2023/06/25 00:15:11;;;;;;;5.20;4.33;;;;;;;;;;5033968;28;20645;-79
2023/06/25 00:17:38;;;;;;;5.47;4.70;;;;;;;;;;5036194;28;20176;-79
2023/06/25 00:20:05;;;;;;;4.80;4.40;;;;;;;;;;5036848;28;20233;-79
2023/06/25 00:22:31;;;;;;;4.70;4.30;;;;;;;;;;5044888;28;20604;-79
2023/06/25 00:24:57;;;;;;;5.63;5.03;;;;;;;;;;5048073;28;20264;-79
2023/06/25 00:27:23;;;;;;;4.53;4.17;;;;;;;;;;5031429;28;20442;-79
2023/06/25 00:29:49;;;;;;;5.53;4.53;;;;;;;;;;5037743;28;20742;-79
2023/06/25 00:32:16;;;;;;;5.70;4.40;;;;;;;;;;5037643;28;20198;-79
2023/06/25 00:34:42;;;;;;;5.33;4.83;;;;;;;;;;5032860;28;20281;-79
2023/06/25 00:37:19;;;;;;;5.20;4.50;;;;;;;;;;5030441;28;20834;-79
2023/06/25 00:39:45;;;;;;;4.60;4.20;;;;;;;;;;5034042;28;20213;-79
2023/06/25 00:42:12;;;;;;;5.27;4.77;;;;;;;;;;5015513;28;20187;-79
2023/06/25 00:44:41;;;;;;;4.93;4.53;;;;;;;;;;5045646;28;20544;-79
2023/06/25 00:47:12;;;;;;;5.03;4.53;;;;;;;;;;5038690;28;20679;-79
2023/06/25 00:49:39;;;;;;;4.67;4.27;;;;;;;;;;5037784;28;20178;-79
2023/06/25 00:52:08;;;;;;;5.73;4.60;;;;;;;;;;5017607;28;20189;-79
2023/06/25 00:54:40;;;;;;;5.23;4.77;;;;;;;;;;5013868;28;20216;-79
2023/06/25 00:57:07;;;;;;;5.63;5.13;;;;;;;;;;5035017;28;20261;-79
2023/06/25 00:59:34;;;;;;;5.43;4.93;;;;;;;;;;5037385;28;20281;-79
2023/06/25 01:02:06;;;;;;;4.97;4.57;;;;;;;;;;5021015;28;20185;-79
2023/06/25 01:04:38;;;;;;;5.53;4.57;;;;;;;;;;5045331;28;20217;-79
2023/06/25 01:07:11;;;;;;;5.40;4.77;;;;;;;;;;5051541;28;20261;-79
2023/06/25 01:09:39;;;;;;;5.37;4.67;;;;;;;;;;5058459;28;20584;-79
2023/06/25 01:12:08;;;;;;;5.57;5.03;;;;;;;;;;5060394;28;20189;-79
2023/06/25 01:14:34;;;;;;;7.27;4.77;;;;;;;;;;5024569;28;20240;-79
2023/06/25 01:17:00;;;;;;;5.10;4.70;;;;;;;;;;5033550;28;20231;-79
2023/06/25 01:19:30;;;;;;;5.70;4.70;;;;;;;;;;5034914;28;20266;-79
2023/06/25 01:22:02;;;;;;;5.13;4.63;;;;;;;;;;5038013;28;20178;-79
2023/06/25 01:24:29;;;;;;;4.90;4.43;;;;;;;;;;5039798;28;20202;-79
2023/06/25 01:26:56;;;;;;;4.73;4.33;;;;;;;;;;5050528;28;20255;-79
2023/06/25 01:29:23;;;;;;;5.10;4.70;;;;;;;;;;5032134;28;20182;-79
2023/06/25 01:31:51;;;;;;;5.13;4.67;;;;;;;;;;5030483;28;20554;-79
2023/06/25 01:34:21;;;;;;;5.07;4.60;;;;;;;;;;5013894;28;20360;-79
2023/06/25 01:36:49;;;;;;;5.00;4.60;;;;;;;;;;5031924;28;20286;-79
2023/06/25 01:39:16;;;;;;;5.30;4.80;;;;;;;;;;5031900;28;20232;-79
2023/06/25 01:41:46;;;;;;;5.83;5.27;;;;;;;;;;5026193;28;20189;-79
2023/06/25 01:44:14;;;;;;;5.77;5.17;;;;;;;;;;5049563;28;20219;-79
2023/06/25 01:46:40;;;;;;;6.23;5.63;;;;;;;;;;5044863;28;20178;-79
2023/06/25 01:49:06;;;;;;;7.37;6.67;;;;;;;;;;5050214;28;20174;-79
2023/06/25 01:51:32;;;;;;;7.63;6.50;;;;;;;;;;5049805;28;20184;-79
2023/06/25 01:53:59;;;;;;;6.87;6.23;;;;;;;;;;5050422;28;20221;-79
2023/06/25 01:56:25;;;;;;;7.10;6.40;;;;;;;;;;5033823;28;20177;-79
2023/06/25 01:58:53;;;;;;;7.10;6.40;;;;;;;;;;5050219;28;20189;-79
2023/06/25 02:01:20;;;;;;;7.10;6.40;;;;;;;;;;5045473;28;20197;-79
2023/06/25 02:03:46;;;;;;;7.00;6.30;;;;;;;;;;5047717;28;20247;-79
2023/06/25 02:06:12;;;;;;;7.33;6.63;;;;;;;;;;5051932;28;20178;-79
2023/06/25 02:08:38;;;;;;;7.40;6.70;;;;;;;;;;5049904;28;20542;-79
2023/06/25 02:11:06;;;;;;;7.40;6.70;;;;;;;;;;5050967;28;20662;-79
2023/06/25 02:13:36;;;;;;;7.90;6.90;;;;;;;;;;5049501;28;20576;-79
2023/06/25 02:16:03;;;;;;;7.73;7.03;;;;;;;;;;5049957;28;20260;-79
2023/06/25 02:18:29;;;;;;;7.87;7.17;;;;;;;;;;5051139;28;20209;-79
2023/06/25 02:20:56;;;;;;;8.00;7.20;;;;;;;;;;5038057;28;20221;-79
2023/06/25 02:23:22;;;;;;;10.50;7.23;;;;;;;;;;5032219;28;20694;-78
2023/06/25 02:25:49;;;;;;;11.30;7.67;;;;;;;;;;5054433;28;20188;-79
2023/06/25 02:28:15;;;;;;;9.00;8.10;;;;;;;;;;5042307;28;20681;-79
2023/06/25 02:30:41;;;;;;;8.43;7.57;;;;;;;;;;5048901;28;20178;-78
2023/06/25 02:33:08;;;;;;;8.33;7.53;;;;;;;;;;5054288;28;20202;-79
2023/06/25 02:35:34;;;;;;;8.97;8.07;;;;;;;;;;5053321;28;20188;-79
2023/06/25 02:38:00;;;;;;;7.40;6.70;;;;;;;;;;5019660;28;20217;-79
2023/06/25 02:40:29;;;;;;;8.83;7.83;;;;;;;;;;5054473;28;20178;-79
2023/06/25 02:42:55;;;;;;;8.37;7.53;;;;;;;;;;5036937;28;20217;-79
2023/06/25 02:45:22;;;;;;;8.60;7.70;;;;;;;;;;5038581;28;20583;-79
2023/06/25 02:47:48;;;;;;;8.43;7.57;;;;;;;;;;5053092;28;20201;-79
2023/06/25 02:50:15;;;;;;;7.77;7.07;;;;;;;;;;5052702;28;20181;-79
2023/06/25 02:52:43;;;;;;;7.87;7.07;;;;;;;;;;5046991;28;20267;-79
2023/06/25 02:55:09;;;;;;;8.07;7.30;;;;;;;;;;5042046;28;20170;-78
2023/06/25 02:57:35;;;;;;;7.20;6.50;;;;;;;;;;5047443;28;20634;-78
2023/06/25 03:00:01;;;;;;;7.57;6.50;;;;;;;;;;5052019;28;20265;-79
2023/06/25 03:02:29;;;;;;;9.20;6.67;;;;;;;;;;5064027;28;20205;-79
2023/06/25 03:04:55;;;;;;;7.90;6.37;;;;;;;;;;5056684;28;20268;-79
2023/06/25 03:07:21;;;;;;;7.10;6.40;;;;;;;;;;5052764;28;20180;-79
2023/06/25 03:09:47;;;;;;;6.60;6.00;;;;;;;;;;5016297;28;20736;-79
2023/06/25 03:12:14;;;;;;;7.47;6.27;;;;;;;;;;5049749;28;20293;-79
2023/06/25 03:14:40;;;;;;;6.53;5.93;;;;;;;;;;5045374;28;20198;-78
2023/06/25 03:17:07;;;;;;;7.20;6.60;;;;;;;;;;5043051;28;20193;-79
2023/06/25 03:19:33;;;;;;;7.80;6.00;;;;;;;;;;5040929;28;20190;-79
2023/06/25 03:21:59;;;;;;;6.30;5.70;;;;;;;;;;5042291;28;20177;-79
2023/06/25 03:24:27;;;;;;;6.30;5.70;;;;;;;;;;5042655;28;20221;-79
2023/06/25 03:26:53;;;;;;;6.77;6.07;;;;;;;;;;5016269;28;20183;-79
2023/06/25 03:29:19;;;;;;;6.40;5.80;;;;;;;;;;5034369;28;20182;-79
2023/06/25 03:31:45;;;;;;;6.40;5.80;;;;;;;;;;5019657;28;20292;-79
2023/06/25 03:34:15;;;;;;;6.53;5.93;;;;;;;;;;5052769;28;20263;-79
2023/06/25 03:36:41;;;;;;;6.73;6.07;;;;;;;;;;5054673;28;20240;-78
2023/06/25 03:39:08;;;;;;;6.00;5.50;;;;;;;;;;5053002;28;20240;-79
2023/06/25 03:41:35;;;;;;;6.07;5.57;;;;;;;;;;5052623;28;20182;-79
2023/06/25 03:44:02;;;;;;;6.37;5.70;;;;;;;;;;5049612;28;20225;-79
2023/06/25 03:46:28;;;;;;;6.90;6.20;;;;;;;;;;5036135;28;20182;-79
2023/06/25 03:48:54;;;;;;;6.23;5.63;;;;;;;;;;5053417;28;20177;-79
2023/06/25 03:51:21;;;;;;;6.10;5.60;;;;;;;;;;5050808;28;20181;-79
2023/06/25 03:53:48;;;;;;;6.73;6.00;;;;;;;;;;5052198;28;20220;-79
2023/06/25 03:56:14;;;;;;;7.40;5.83;;;;;;;;;;5051929;28;20189;-79
2023/06/25 03:58:40;;;;;;;5.70;5.20;;;;;;;;;;5052216;28;20186;-79
2023/06/25 04:01:06;;;;;;;5.93;5.33;;;;;;;;;;5036381;28;20186;-79
2023/06/25 04:03:33;;;;;;;5.63;5.13;;;;;;;;;;5051109;28;20214;-74
2023/06/25 04:05:59;;;;;;;5.70;5.20;;;;;;;;;;5052491;28;20637;-74
2023/06/25 04:08:25;;;;;;;5.50;5.00;;;;;;;;;;5051846;28;20196;-74
2023/06/25 04:10:52;;;;;;;5.73;5.23;;;;;;;;;;5051441;28;20178;-74
2023/06/25 04:13:19;;;;;;;5.83;5.33;;;;;;;;;;5050616;28;20293;-74
2023/06/25 04:15:45;;;;;;;5.97;5.27;;;;;;;;;;5034960;28;20268;-74
2023/06/25 04:18:11;;;;;;;6.17;5.33;;;;;;;;;;5051499;28;20202;-74
2023/06/25 04:20:38;;;;;;;5.40;4.90;;;;;;;;;;5032482;28;20183;-74
2023/06/25 04:23:04;;;;;;;5.00;4.50;;;;;;;;;;5030830;28;20276;-74
2023/06/25 04:25:31;;;;;;;5.00;4.50;;;;;;;;;;5044792;28;20213;-74
2023/06/25 04:27:57;;;;;;;5.60;5.10;;;;;;;;;;5049227;28;20676;-74
2023/06/25 04:30:24;;;;;;;6.40;5.40;;;;;;;;;;5031253;28;20382;-74
2023/06/25 04:32:51;;;;;;;8.37;5.40;;;;;;;;;;5030428;28;20213;-74
2023/06/25 04:35:21;;;;;;;5.77;5.20;;;;;;;;;;5031224;28;20186;-74
2023/06/25 04:37:47;;;;;;;6.37;5.77;;;;;;;;;;5014515;28;20183;-74
2023/06/25 04:40:13;;;;;;;6.47;5.87;;;;;;;;;;5030719;28;20900;-74
2023/06/25 04:42:40;;;;;;;7.07;6.13;;;;;;;;;;5030371;28;20185;-74
2023/06/25 04:45:06;;;;;;;6.00;5.40;;;;;;;;;;5039385;28;20212;-75
2023/06/25 04:47:33;;;;;;;7.27;5.50;;;;;;;;;;5049355;28;20174;-74
2023/06/25 04:50:01;;;;;;;5.63;5.13;;;;;;;;;;5050412;28;20197;-74
2023/06/25 04:52:28;;;;;;;5.40;4.90;;;;;;;;;;5046113;28;20182;-74
2023/06/25 04:54:54;;;;;;;5.87;5.30;;;;;;;;;;5031623;28;20646;-75
2023/06/25 04:57:20;;;;;;;6.20;4.77;;;;;;;;;;5031706;28;20175;-74
2023/06/25 04:59:46;;;;;;;5.67;5.13;;;;;;;;;;5047208;28;20550;-74
2023/06/25 05:02:13;;;;;;;5.17;4.67;;;;;;;;;;5048510;28;20210;-74
2023/06/25 05:04:39;;;;;;;6.37;4.63;;;;;;;;;;5042171;28;20206;-74
2023/06/25 05:07:05;;;;;;;5.40;4.90;;;;;;;;;;5030143;28;20232;-74
2023/06/25 05:09:31;;;;;;;5.17;4.67;;;;;;;;;;5044228;28;20181;-74
2023/06/25 05:11:57;;;;;;;5.13;4.63;;;;;;;;;;5050639;28;20253;-74
2023/06/25 05:14:25;;;;;;;5.37;4.87;;;;;;;;;;5050906;28;20219;-74
2023/06/25 05:16:51;;;;;;;5.70;5.10;;;;;;;;;;5050134;28;20201;-74
2023/06/25 05:19:17;;;;;;;8.20;5.30;;;;;;;;;;5051000;28;20204;-74
2023/06/25 05:21:43;;;;;;;5.37;4.87;;;;;;;;;;5040178;28;20217;-74
2023/06/25 05:24:10;;;;;;;5.30;4.80;;;;;;;;;;5029807;28;20218;-74
2023/06/25 05:26:36;;;;;;;5.10;4.60;;;;;;;;;;5013320;28;20193;-74
2023/06/25 05:29:02;;;;;;;4.90;4.40;;;;;;;;;;5031035;28;20170;-74
2023/06/25 05:31:29;;;;;;;5.07;4.57;;;;;;;;;;5030707;28;20879;-74
2023/06/25 05:33:56;;;;;;;4.97;4.57;;;;;;;;;;5047272;28;20551;-74
2023/06/25 05:36:22;;;;;;;4.93;4.43;;;;;;;;;;5051030;28;20173;-74
2023/06/25 05:38:48;;;;;;;5.30;4.80;;;;;;;;;;5050763;28;20174;-74
2023/06/25 05:41:14;;;;;;;5.43;4.57;;;;;;;;;;5050801;28;20182;-74
2023/06/25 05:43:40;;;;;;;5.67;4.60;;;;;;;;;;5049905;28;20217;-74
2023/06/25 05:46:11;;;;;;;4.70;4.30;;;;;;;;;;5050238;28;20202;-74
2023/06/25 05:48:38;;;;;;;4.70;4.30;;;;;;;;;;5050513;28;20174;-74
2023/06/25 05:51:04;;;;;;;5.90;4.80;;;;;;;;;;5048430;28;20233;-74
2023/06/25 05:53:38;;;;;;;5.20;4.50;;;;;;;;;;5043065;28;20213;-75
2023/06/25 05:56:04;;;;;;;4.93;4.43;;;;;;;;;;5033487;28;20194;-75
2023/06/25 05:58:30;;;;;;;4.90;4.40;;;;;;;;;;5034447;28;20235;-74
2023/06/25 06:00:56;;;;;;;5.17;4.67;;;;;;;;;;5033511;28;20202;-74
2023/06/25 06:03:22;;;;;;;4.60;4.20;;;;;;;;;;5051427;28;20218;-74
2023/06/25 06:05:48;;;;;;;4.67;4.27;;;;;;;;;;5042149;28;20202;-75
2023/06/25 06:08:15;;;;;;;4.90;4.20;;;;;;;;;;5046221;28;20186;-74
2023/06/25 06:10:41;;;;;;;4.47;4.07;;;;;;;;;;5040260;28;20188;-75
2023/06/25 06:13:07;;;;;;;4.47;4.00;;;;;;;;;;5039042;28;20816;-74
2023/06/25 06:15:33;;;;;;;4.77;4.30;;;;;;;;;;5050412;28;20260;-74
2023/06/25 06:17:59;;;;;;;5.50;4.57;;;;;;;;;;5054549;28;20304;-74
2023/06/25 06:20:25;;;;;;;5.23;4.73;;;;;;;;;;5041338;28;20192;-74
2023/06/25 06:22:51;;;;;;;4.67;4.27;;;;;;;;;;5047689;28;20654;-74
2023/06/25 06:25:17;;;;;;;5.00;4.50;;;;;;;;;;5044565;28;20187;-74
2023/06/25 06:27:44;;;;;;;5.03;4.53;;;;;;;;;;5037732;28;20185;-75
2023/06/25 06:30:10;;;;;;;4.90;4.50;;;;;;;;;;5041038;28;20208;-75
2023/06/25 06:32:37;;;;;;;5.07;4.60;;;;;;;;;;5038669;28;20261;-75
2023/06/25 06:35:03;;;;;;;5.33;4.37;;;;;;;;;;5032806;28;20260;-75
2023/06/25 06:37:29;;;;;;;5.40;4.40;;;;;;;;;;5037260;28;20181;-75
2023/06/25 06:39:55;;;;;;;5.67;5.17;;;;;;;;;;5037045;28;20182;-74
2023/06/25 06:42:21;;;;;;;6.70;6.03;;;;;;;;;;5035720;28;20182;-75
2023/06/25 06:44:48;;;;;;;6.33;5.73;;;;;;;;;;5045527;28;20292;-75
2023/06/25 06:47:14;;;;;;;6.30;5.70;;;;;;;;;;5052052;28;20188;-74
2023/06/25 06:49:40;;;;;;;6.40;5.80;;;;;;;;;;5054130;28;20170;-74
2023/06/25 06:52:07;;;;;;;5.90;5.30;;;;;;;;;;5052389;28;20193;-75
2023/06/25 06:54:33;;;;;;;5.27;4.83;;;;;;;;;;5040154;28;20260;-73
2023/06/25 06:56:59;;;;;;;5.90;5.30;;;;;;;;;;5037910;28;20194;-73
2023/06/25 06:59:25;;;;;;;6.63;5.27;;;;;;;;;;5053894;28;20193;-73
2023/06/25 07:01:51;;;;;;;7.90;5.70;;;;;;;;;;5053682;28;20259;-75
2023/06/25 07:04:17;;;;;;;7.07;5.80;;;;;;;;;;5053643;28;20214;-73
2023/06/25 07:06:43;;;;;;;6.30;5.60;;;;;;;;;;5053533;28;20201;-73
2023/06/25 07:09:09;;;;;;;6.40;5.80;;;;;;;;;;5053772;28;20188;-75
2023/06/25 07:11:35;;;;;;;6.10;5.50;;;;;;;;;;5053655;28;20228;-74
2023/06/25 07:14:02;;;;;;;5.07;4.60;;;;;;;;;;5051168;28;20234;-76
2023/06/25 07:16:28;;;;;;;5.23;4.83;;;;;;;;;;5052169;28;20217;-73
2023/06/25 07:18:54;;;;;;;5.40;4.87;;;;;;;;;;5053666;28;20642;-75
2023/06/25 07:21:20;;;;;;;6.80;5.30;;;;;;;;;;5046310;28;20186;-74
2023/06/25 07:23:46;;;;;;;5.17;4.67;;;;;;;;;;5048390;28;20241;-74
2023/06/25 07:26:12;;;;;;;5.73;5.20;;;;;;;;;;5050516;28;20611;-74
2023/06/25 07:28:39;;;;;;;5.60;5.10;;;;;;;;;;5043960;28;20641;-74
2023/06/25 07:31:05;;;;;;;5.90;5.30;;;;;;;;;;5039265;28;20210;-74
2023/06/25 07:33:31;;;;;;;5.77;5.27;;;;;;;;;;5040323;28;20585;-74
2023/06/25 07:35:57;;;;;;;5.50;5.00;;;;;;;;;;5053214;28;20665;-74
2023/06/25 07:38:23;;;;;;;5.80;5.27;;;;;;;;;;5042006;28;20198;-74
2023/06/25 07:40:49;;;;;;;5.67;5.17;;;;;;;;;;5032581;28;20420;-74
2023/06/25 07:43:16;;;;;;;5.83;5.17;;;;;;;;;;5047044;28;20256;-74
2023/06/25 07:45:42;;;;;;;5.93;5.17;;;;;;;;;;5035160;28;20182;-74
2023/06/25 07:48:08;;;;;;;5.87;5.20;;;;;;;;;;5033040;28;20634;-74
2023/06/25 07:50:34;;;;;;;6.30;5.70;;;;;;;;;;5031892;28;20175;-74
2023/06/25 07:53:00;;;;;;;5.77;5.20;;;;;;;;;;5036007;28;20234;-74
2023/06/25 07:55:26;;;;;;;5.80;5.30;;;;;;;;;;5032809;28;20190;-74
2023/06/25 07:57:53;;;;;;;6.37;5.77;;;;;;;;;;5034969;28;20245;-74
2023/06/25 08:00:19;;;;;;;5.67;5.17;;;;;;;;;;5049135;28;20194;-74
2023/06/25 08:02:45;;;;;;;5.93;5.30;;;;;;;;;;5039945;28;20247;-74
2023/06/25 08:05:12;;;;;;;5.83;5.23;;;;;;;;;;5048640;28;20182;-74
2023/06/25 08:07:38;;;;;;;6.40;4.80;;;;;;;;;;5051129;28;20177;-75
2023/06/25 08:10:04;;;;;;;5.70;5.20;;;;;;;;;;5050178;28;20519;-75
2023/06/25 08:12:30;;;;;;;5.40;4.90;;;;;;;;;;5051977;28;20257;-75
2023/06/25 08:14:58;;;;;;;5.37;4.87;;;;;;;;;;5032607;28;20182;-75
2023/06/25 08:17:24;;;;;;;5.33;4.83;;;;;;;;;;5049432;28;20283;-75
2023/06/25 08:19:50;;;;;;;5.70;5.20;;;;;;;;;;5052533;28;20189;-75
2023/06/25 08:22:16;;;;;;;5.83;5.23;;;;;;;;;;5049979;28;20177;-74
2023/06/25 08:24:42;;;;;;;5.33;4.87;;;;;;;;;;5052036;28;20300;-75
2023/06/25 08:27:09;;;;;;;6.20;5.60;;;;;;;;;;5043657;28;20592;-75
2023/06/25 08:29:35;;;;;;;5.73;5.20;;;;;;;;;;5051622;28;20184;-75
2023/06/25 08:32:01;;;;;;;5.90;5.40;;;;;;;;;;5043160;28;20182;-74
2023/06/25 08:34:27;;;;;;;5.90;5.27;;;;;;;;;;5050530;28;20212;-75
2023/06/25 08:36:55;;;;;;;5.67;5.10;;;;;;;;;;5052039;28;20221;-75
2023/06/25 08:39:21;;;;;;;6.27;5.20;;;;;;;;;;5051959;28;20175;-75
2023/06/25 08:41:49;;;;;;;5.87;5.00;;;;;;;;;;5051768;28;20238;-75
2023/06/25 08:44:15;;;;;;;7.30;5.23;;;;;;;;;;5051522;28;20704;-75
2023/06/25 08:46:47;;;;;;;7.00;5.30;;;;;;;;;;5050895;28;20170;-75
2023/06/25 08:49:13;;;;;;;7.10;5.23;;;;;;;;;;5034123;28;20178;-75
2023/06/25 08:51:39;;;;;;;5.63;5.10;;;;;;;;;;5051674;28;20193;-75
2023/06/25 08:54:06;;;;;;;5.37;4.93;;;;;;;;;;5050227;28;20295;-75
2023/06/25 08:56:33;;;;;;;6.13;5.10;;;;;;;;;;5050028;28;20185;-75
2023/06/25 08:58:59;;;;;;;5.90;5.40;;;;;;;;;;5033573;28;20197;-75
2023/06/25 09:01:25;;;;;;;5.83;5.33;;;;;;;;;;5050304;28;20189;-75
2023/06/25 09:03:52;;;;;;;6.00;5.50;;;;;;;;;;5050877;28;20739;-75
2023/06/25 09:06:21;;;;;;;7.03;5.67;;;;;;;;;;5050487;28;20218;-75
2023/06/25 09:08:47;;;;;;;5.80;5.20;;;;;;;;;;5051686;28;20178;-75
2023/06/25 09:11:13;;;;;;;7.40;5.27;;;;;;;;;;5050350;28;20204;-75
2023/06/25 09:13:40;;;;;;;5.30;4.80;;;;;;;;;;5049778;28;20204;-75
2023/06/25 09:16:09;;;;;;;5.53;4.80;;;;;;;;;;5051545;28;20679;-75
2023/06/25 09:18:36;;;;;;;5.27;4.77;;;;;;;;;;5050073;28;20187;-75
2023/06/25 09:21:03;;;;;;;5.60;5.10;;;;;;;;;;5051366;28;20591;-75
2023/06/25 09:23:29;;;;;;;5.20;4.70;;;;;;;;;;5049136;28;20209;-75
2023/06/25 09:25:56;;;;;;;5.50;5.00;;;;;;;;;;5051317;28;20586;-75
2023/06/25 09:28:22;;;;;;;5.33;4.80;;;;;;;;;;5050973;28;20227;-75
2023/06/25 09:30:48;;;;;;;5.63;5.03;;;;;;;;;;5033621;28;20227;-76
2023/06/25 09:33:16;;;;;;;5.77;5.27;;;;;;;;;;5049302;28;20208;-75
2023/06/25 09:35:42;;;;;;;6.37;4.50;;;;;;;;;;5051123;28;20178;-76
2023/06/25 09:38:08;;;;;;;4.80;4.40;;;;;;;;;;5049912;28;20698;-75
2023/06/25 09:40:35;;;;;;;5.17;4.70;;;;;;;;;;5051319;28;20716;-75
2023/06/25 09:43:05;;;;;;;5.23;4.73;;;;;;;;;;5050462;28;20229;-75
2023/06/25 09:45:33;;;;;;;5.17;4.67;;;;;;;;;;5051125;28;20174;-75
2023/06/25 09:47:59;;;;;;;4.83;4.40;;;;;;;;;;5049953;28;20256;-75
2023/06/25 09:50:35;;;;;;;5.10;4.60;;;;;;;;;;5050869;28;20543;-75
2023/06/25 09:53:03;;;;;;;5.20;4.70;;;;;;;;;;5050428;28;20266;-75
2023/06/25 09:55:30;;;;;;;5.30;4.80;;;;;;;;;;5051073;28;20158;-75
2023/06/25 09:57:57;;;;;;;4.83;4.37;;;;;;;;;;5050857;28;20171;-75
2023/06/25 10:00:24;;;;;;;4.90;4.50;;;;;;;;;;5050655;28;20194;-75
2023/06/25 10:02:52;;;;;;;4.83;4.43;;;;;;;;;;5032588;28;20277;-75
2023/06/25 10:05:18;;;;;;;5.80;4.93;;;;;;;;;;5050606;28;20178;-75
2023/06/25 10:07:45;;;;;;;4.53;4.13;;;;;;;;;;5050755;28;20543;-75
2023/06/25 10:10:20;;;;;;;4.80;4.40;;;;;;;;;;5050705;28;20575;-75
2023/06/25 10:12:48;;;;;;;4.90;4.50;;;;;;;;;;5050494;28;20169;-75
2023/06/25 10:15:14;;;;;;;5.07;4.57;;;;;;;;;;5050574;28;20181;-75
2023/06/25 10:17:52;;;;;;;4.70;4.30;;;;;;;;;;5049563;28;20175;-75
2023/06/25 10:20:26;;;;;;;5.07;4.43;;;;;;;;;;5050661;28;20223;-75
2023/06/25 10:23:02;;;;;;;4.80;4.40;;;;;;;;;;5045473;28;20197;-75
2023/06/25 10:25:28;;;;;;;4.53;3.93;;;;;;;;;;5050572;28;20670;-75
2023/06/25 10:28:05;;;;;;;4.90;4.40;;;;;;;;;;5042252;28;20708;-75
2023/06/25 10:30:38;;;;;;;5.07;4.60;;;;;;;;;;5045038;28;20260;-76
2023/06/25 10:33:05;;;;;;;5.37;4.57;;;;;;;;;;5060669;28;20201;-75
2023/06/25 10:35:36;;;;;;;4.73;4.30;;;;;;;;;;5059090;28;20178;-75
2023/06/25 10:38:03;;;;;;;5.20;4.70;;;;;;;;;;5036506;28;20599;-75
2023/06/25 10:40:33;;;;;;;5.20;4.70;;;;;;;;;;5031718;28;20183;-75
2023/06/25 10:43:00;;;;;;;4.90;4.50;;;;;;;;;;5049758;28;20205;-75
2023/06/25 10:45:26;;;;;;;4.60;4.20;;;;;;;;;;5035606;28;20182;-75
2023/06/25 10:48:08;;;;;;;4.80;4.40;;;;;;;;;;5034118;28;20188;-75
2023/06/25 10:50:35;;;;;;;4.70;4.30;;;;;;;;;;5040692;28;20585;-75
2023/06/25 10:53:02;;;;;;;4.90;4.50;;;;;;;;;;5052303;28;20231;-76
2023/06/25 10:55:28;;;;;;;5.20;4.70;;;;;;;;;;5047580;28;20198;-76
2023/06/25 10:57:55;;;;;;;5.33;4.90;;;;;;;;;;5054151;28;20668;-76
2023/06/25 11:00:25;;;;;;;6.10;4.90;;;;;;;;;;5060700;28;20681;-74
2023/06/25 11:02:52;;;;;;;4.77;4.37;;;;;;;;;;5054361;28;20580;-75
2023/06/25 11:05:19;;;;;;;5.40;4.90;;;;;;;;;;5050612;28;20201;-77
2023/06/25 11:07:45;;;;;;;5.00;4.60;;;;;;;;;;5061304;28;20186;-74
2023/06/25 11:10:13;;;;;;;4.80;4.40;;;;;;;;;;5048270;28;20179;-72
2023/06/25 11:12:39;;;;;;;5.07;4.67;;;;;;;;;;5033451;28;20174;-72
2023/06/25 11:15:05;;;;;;;5.00;4.60;;;;;;;;;;5034278;28;20545;-73
2023/06/25 11:17:31;;;;;;;4.60;4.30;;;;;;;;;;5047075;28;20189;-72
2023/06/25 11:19:57;;;;;;;4.93;4.43;;;;;;;;;;5046263;28;20282;-73
2023/06/25 11:22:26;;;;;;;5.27;4.70;;;;;;;;;;5044510;28;20653;-74
2023/06/25 11:24:52;;;;;;;5.30;4.80;;;;;;;;;;5047004;28;20217;-75
2023/06/25 11:27:25;;;;;;;4.93;4.50;;;;;;;;;;5053494;28;20185;-75
2023/06/25 11:29:53;;;;;;;4.70;4.30;;;;;;;;;;5053453;28;20234;-75
2023/06/25 11:32:23;;;;;;;5.30;4.90;;;;;;;;;;5051963;28;20274;-75
2023/06/25 11:34:49;;;;;;;4.97;4.57;;;;;;;;;;5053242;28;20202;-75
2023/06/25 11:37:18;;;;;;;22.23;5.07;;;;;;;;;;5052323;28;20273;-75
2023/06/25 11:39:51;;;;;;;4.90;4.50;;;;;;;;;;5026400;28;20189;-75
2023/06/25 11:42:18;;;;;;;5.27;4.87;;;;;;;;;;5042114;28;20190;-75
2023/06/25 11:44:45;;;;;;;4.80;4.40;;;;;;;;;;5053039;28;20215;-75
2023/06/25 11:47:14;;;;;;;4.70;4.30;;;;;;;;;;5035431;28;20266;-75
2023/06/25 11:49:40;;;;;;;4.70;4.30;;;;;;;;;;5039318;28;20187;-75
2023/06/25 11:52:07;;;;;;;4.90;4.50;;;;;;;;;;5032655;28;20265;-78
2023/06/25 11:54:33;;;;;;;5.07;4.57;;;;;;;;;;5048786;28;20209;-80
2023/06/25 11:56:59;;;;;;;4.83;4.43;;;;;;;;;;5053342;28;20173;-80
2023/06/25 11:59:25;;;;;;;4.60;4.20;;;;;;;;;;5043821;28;20212;-80
2023/06/25 12:01:52;;;;;;;4.97;4.57;;;;;;;;;;5050297;28;20723;-81
2023/06/25 12:04:18;;;;;;;4.87;4.47;;;;;;;;;;5035613;28;20296;-81
2023/06/25 12:06:44;;;;;;;4.87;4.47;;;;;;;;;;5049714;28;20645;-79
2023/06/25 12:09:10;;;;;;;4.63;4.23;;;;;;;;;;5043614;28;20187;-80
2023/06/25 12:11:37;;;;;;;4.53;4.17;;;;;;;;;;5048291;28;20479;-80
2023/06/25 12:14:03;;;;;;;4.90;4.50;;;;;;;;;;5044186;28;20234;-80
2023/06/25 12:16:30;;;;;;;4.87;4.47;;;;;;;;;;5053542;28;20177;-80
2023/06/25 12:18:57;;;;;;;4.10;3.80;;;;;;;;;;5045936;28;20209;-80
2023/06/25 12:21:23;;;;;;;4.80;4.40;;;;;;;;;;5050920;28;20185;-80
2023/06/25 12:23:49;;;;;;;4.70;4.33;;;;;;;;;;5050804;28;20743;-80
2023/06/25 12:26:15;;;;;;;5.10;4.70;;;;;;;;;;5052661;28;20269;-81
2023/06/25 12:28:41;;;;;;;4.90;4.40;;;;;;;;;;5051706;28;20178;-81
2023/06/25 12:31:07;;;;;;;4.87;4.47;;;;;;;;;;5052121;28;20216;-80
2023/06/25 12:33:33;;;;;;;4.83;4.43;;;;;;;;;;5043767;28;20570;-80
2023/06/25 12:35:59;;;;;;;5.83;4.10;;;;;;;;;;5042934;28;20257;-81
2023/06/25 12:38:25;;;;;;;4.20;3.90;;;;;;;;;;5049818;28;20183;-80
2023/06/25 12:40:56;;;;;;;4.63;4.23;;;;;;;;;;5051362;28;20221;-80
2023/06/25 12:43:23;;;;;;;4.27;3.97;;;;;;;;;;5049875;28;20724;-81
2023/06/25 12:45:49;;;;;;;4.60;4.20;;;;;;;;;;5050592;28;20237;-80
2023/06/25 12:48:15;;;;;;;4.03;3.73;;;;;;;;;;5052823;28;20201;-81
2023/06/25 12:50:41;;;;;;;4.30;3.97;;;;;;;;;;5049249;28;20184;-80
2023/06/25 12:53:07;;;;;;;4.50;4.20;;;;;;;;;;5051101;28;20684;-81
2023/06/25 12:55:33;;;;;;;4.63;4.23;;;;;;;;;;5051278;28;20689;-81
2023/06/25 12:57:59;;;;;;;4.30;3.90;;;;;;;;;;5047414;28;20197;-81
2023/06/25 13:00:26;;;;;;;3.73;3.43;;;;;;;;;;5017516;28;20223;-81
2023/06/25 13:02:52;;;;;;;3.87;3.47;;;;;;;;;;5036082;28;20220;-81
2023/06/25 13:05:18;;;;;;;4.60;4.30;;;;;;;;;;5049905;28;20196;-81
2023/06/25 13:07:44;;;;;;;4.20;3.90;;;;;;;;;;5048506;28;20185;-81
2023/06/25 13:10:10;;;;;;;3.95;3.65;;;;;;;;;;5051779;28;20580;-81
2023/06/25 13:12:37;;;;;;;4.20;3.90;;;;;;;;;;5048324;28;20247;-81
2023/06/25 13:15:06;;;;;;;4.32;4.03;;;;;;;;;;5050388;28;20579;-81
2023/06/25 13:17:33;;;;;;;4.00;3.70;;;;;;;;;;5050528;28;20660;-81
2023/06/25 13:19:59;;;;;;;3.95;3.65;;;;;;;;;;5044196;28;20213;-81
2023/06/25 13:22:25;;;;;;;3.83;3.53;;;;;;;;;;5041273;28;20186;-81
2023/06/25 13:24:51;;;;;;;4.10;3.80;;;;;;;;;;5045229;28;20663;-81
2023/06/25 13:27:17;;;;;;;4.00;3.70;;;;;;;;;;5049890;28;20209;-82
2023/06/25 13:29:43;;;;;;;3.90;3.65;;;;;;;;;;5051529;28;20187;-82
2023/06/25 13:32:09;;;;;;;4.10;3.80;;;;;;;;;;5050151;28;20667;-82
2023/06/25 13:34:35;;;;;;;4.20;3.80;;;;;;;;;;5050011;28;20559;-82
2023/06/25 13:37:02;;;;;;;4.15;3.80;;;;;;;;;;5045688;28;20183;-79
2023/06/25 13:39:28;;;;;;;4.15;3.75;;;;;;;;;;5047437;28;20198;-79
2023/06/25 13:41:54;;;;;;;4.20;3.90;;;;;;;;;;5047224;28;20274;-79
2023/06/25 13:44:20;;;;;;;3.78;3.47;;;;;;;;;;5050472;28;20758;-79
2023/06/25 13:46:46;;;;;;;4.10;3.80;;;;;;;;;;5050123;28;20176;-78
2023/06/25 13:49:12;;;;;;;4.22;3.90;;;;;;;;;;5042874;28;20183;-79
2023/06/25 13:51:38;;;;;;;4.32;3.92;;;;;;;;;;5046922;28;20672;-78
2023/06/25 13:54:05;;;;;;;3.80;3.50;;;;;;;;;;5040186;28;20720;-80
2023/06/25 13:56:31;;;;;;;4.25;3.80;;;;;;;;;;5045078;28;20194;-78
2023/06/25 13:58:57;;;;;;;4.18;3.88;;;;;;;;;;5039919;28;20191;-77
2023/06/25 14:01:23;;;;;;;4.18;3.88;;;;;;;;;;5034340;28;20553;-78
2023/06/25 14:03:49;;;;;;;4.10;3.80;;;;;;;;;;5031194;28;20207;-77
2023/06/25 14:06:15;;;;;;;4.32;4.03;;;;;;;;;;5040706;28;20189;-78
2023/06/25 14:08:41;;;;;;;4.20;3.90;;;;;;;;;;5046623;28;20581;-79
2023/06/25 14:11:08;;;;;;;3.97;3.67;;;;;;;;;;5038796;28;20190;-80
2023/06/25 14:13:34;;;;;;;4.07;3.78;;;;;;;;;;5030883;28;20199;-79
2023/06/25 14:16:00;;;;;;;4.03;3.60;;;;;;;;;;5033932;28;20657;-79
2023/06/25 14:18:26;;;;;;;4.03;3.80;;;;;;;;;;5038896;28;20277;-81
2023/06/25 14:20:52;;;;;;;4.45;4.15;;;;;;;;;;5042573;28;20178;-81
2023/06/25 14:23:19;;;;;;;4.53;4.13;;;;;;;;;;5043689;28;20253;-79
2023/06/25 14:25:45;;;;;;;4.80;4.40;;;;;;;;;;5035868;28;20190;-80
2023/06/25 14:28:12;;;;;;;4.40;4.10;;;;;;;;;;5045130;28;20194;-81
2023/06/25 14:30:38;;;;;;;4.82;4.38;;;;;;;;;;5040851;28;20197;-80
2023/06/25 14:33:04;;;;;;;4.30;4.00;;;;;;;;;;5051198;28;20197;-81
2023/06/25 14:35:32;;;;;;;4.28;3.97;;;;;;;;;;5049803;28;20209;-81
2023/06/25 14:37:58;;;;;;;4.50;4.20;;;;;;;;;;5048236;28;20217;-80
2023/06/25 14:40:24;;;;;;;4.63;4.32;;;;;;;;;;5056100;28;20620;-79